Time;durP1;ratioP1;P1;durP2;ratioP2;P2;SDS_P1;SDS_P2;PMS_P1;PMS_P2;Temp;Humidity;BMP_temperature;BMP_pressure;BME280_temperature;BME280_humidity;BME280_pressure;Samples;Min_cycle;Max_cycle;Signal;HPM_P1;HPM_P2
2021/05/17 00:01:28;;;;;;;0.20;0.20;;;;;;;;;;5093358;28;20016;-17
2021/05/17 00:03:54;;;;;;;0.95;0.52;;;;;;;;;;5093352;28;20020;-17
2021/05/17 00:06:19;;;;;;;0.93;0.70;;;;;;;;;;5093631;28;20042;-17
2021/05/17 00:08:46;;;;;;;1.73;0.75;;;;;;;;;;5093424;28;20072;-17
2021/05/17 00:11:11;;;;;;;2.47;1.08;;;;;;;;;;5093313;28;20012;-17
2021/05/17 00:13:37;;;;;;;4.15;0.88;;;;;;;;;;5093548;28;20054;-17
2021/05/17 00:16:03;;;;;;;0.90;0.70;;;;;;;;;;5093303;28;20008;-17
2021/05/17 00:18:28;;;;;;;4.07;1.85;;;;;;;;;;5093122;28;20095;-16
2021/05/17 00:20:53;;;;;;;2.55;0.75;;;;;;;;;;5092985;28;20058;-17
2021/05/17 00:23:19;;;;;;;1.88;0.88;;;;;;;;;;5093041;28;20028;-17
2021/05/17 00:25:44;;;;;;;0.93;0.50;;;;;;;;;;5092932;28;20020;-17
2021/05/17 00:28:10;;;;;;;1.73;0.73;;;;;;;;;;5091536;28;20110;-17
2021/05/17 00:30:35;;;;;;;3.28;1.55;;;;;;;;;;5092956;28;20055;-17
2021/05/17 00:33:01;;;;;;;0.95;0.70;;;;;;;;;;5092817;28;20016;-17
2021/05/17 00:35:27;;;;;;;0.80;0.70;;;;;;;;;;5093003;28;20045;-17
2021/05/17 00:37:53;;;;;;;1.00;0.70;;;;;;;;;;5092687;28;20058;-17
2021/05/17 00:40:19;;;;;;;2.72;1.05;;;;;;;;;;5092770;28;20463;-17
2021/05/17 00:42:44;;;;;;;0.85;0.35;;;;;;;;;;5092803;28;20410;-17
2021/05/17 00:45:11;;;;;;;2.28;0.90;;;;;;;;;;5092957;28;20026;-17
2021/05/17 00:47:38;;;;;;;1.83;0.90;;;;;;;;;;5092749;28;20058;-17
2021/05/17 00:50:03;;;;;;;1.83;0.88;;;;;;;;;;5091173;28;20058;-17
2021/05/17 00:52:30;;;;;;;1.38;0.77;;;;;;;;;;5092628;28;20099;-17
2021/05/17 00:54:55;;;;;;;7.90;1.20;;;;;;;;;;5091296;28;20047;-17
2021/05/17 00:57:21;;;;;;;0.55;0.55;;;;;;;;;;5091396;28;20035;-17
2021/05/17 00:59:46;;;;;;;3.72;1.02;;;;;;;;;;5091151;28;20019;-17
2021/05/17 01:02:12;;;;;;;2.67;1.20;;;;;;;;;;5091351;28;20028;-17
2021/05/17 01:04:57;;;;;;;1.13;0.68;;;;;;;;;;5092413;28;20035;-17
2021/05/17 01:07:27;;;;;;;3.95;0.88;;;;;;;;;;5092788;28;20031;-17
2021/05/17 01:09:55;;;;;;;1.70;1.08;;;;;;;;;;5091066;28;20115;-18
2021/05/17 01:12:21;;;;;;;0.73;0.50;;;;;;;;;;5092711;28;20028;-17
2021/05/17 01:14:47;;;;;;;0.63;0.60;;;;;;;;;;5092716;28;20016;-17
2021/05/17 01:17:13;;;;;;;5.15;0.80;;;;;;;;;;5092333;28;20374;-17
2021/05/17 01:19:46;;;;;;;6.70;1.67;;;;;;;;;;5090964;28;20028;-17
2021/05/17 01:22:22;;;;;;;2.75;0.73;;;;;;;;;;5092457;28;20020;-17
2021/05/17 01:24:48;;;;;;;2.00;0.85;;;;;;;;;;5092549;28;20024;-17
2021/05/17 01:27:13;;;;;;;1.05;0.70;;;;;;;;;;5092458;28;20150;-17
2021/05/17 01:29:40;;;;;;;1.55;0.82;;;;;;;;;;5092757;28;20062;-17
2021/05/17 01:32:07;;;;;;;4.28;1.30;;;;;;;;;;5095090;28;20423;-17
2021/05/17 01:34:33;;;;;;;5.55;1.27;;;;;;;;;;5096541;28;20394;-17
2021/05/17 01:36:59;;;;;;;8.15;0.70;;;;;;;;;;5078030;28;20477;-17
2021/05/17 01:39:25;;;;;;;3.30;0.77;;;;;;;;;;5096440;28;20038;-17
2021/05/17 01:41:52;;;;;;;1.23;0.50;;;;;;;;;;5094964;28;20042;-17
2021/05/17 01:44:21;;;;;;;2.05;0.95;;;;;;;;;;5096162;28;20023;-17
2021/05/17 01:46:47;;;;;;;0.73;0.50;;;;;;;;;;5096050;28;20054;-17
2021/05/17 01:49:14;;;;;;;1.50;0.73;;;;;;;;;;5096083;28;20379;-17
2021/05/17 01:51:42;;;;;;;2.13;0.47;;;;;;;;;;5095988;28;20016;-17
2021/05/17 01:54:09;;;;;;;1.90;0.68;;;;;;;;;;5095786;28;20479;-17
2021/05/17 01:56:34;;;;;;;0.75;0.40;;;;;;;;;;5095849;28;20114;-17
2021/05/17 01:59:27;;;;;;;0.30;0.30;;;;;;;;;;5095567;28;20451;-17
2021/05/17 02:01:53;;;;;;;;;;;;;;;;;;5096437;28;20357;-17
2021/05/17 02:04:18;;;;;;;0.45;0.38;;;;;;;;;;5094438;28;20049;-17
2021/05/17 02:06:44;;;;;;;1.65;0.57;;;;;;;;;;5094389;28;20505;-17
2021/05/17 02:09:10;;;;;;;0.95;0.63;;;;;;;;;;5094272;28;20092;-17
2021/05/17 02:11:36;;;;;;;2.15;0.45;;;;;;;;;;5094176;28;20378;-17
2021/05/17 02:14:22;;;;;;;1.73;0.82;;;;;;;;;;5095043;28;20024;-19
2021/05/17 02:16:50;;;;;;;0.60;0.47;;;;;;;;;;5093763;28;20024;-17
2021/05/17 02:19:20;;;;;;;2.00;0.40;;;;;;;;;;5095446;28;20016;-19
2021/05/17 02:21:45;;;;;;;3.58;0.90;;;;;;;;;;5092830;28;20024;-19
2021/05/17 02:24:12;;;;;;;0.30;0.30;;;;;;;;;;5095391;28;20027;-19
2021/05/17 02:26:38;;;;;;;0.60;0.50;;;;;;;;;;5094050;28;20099;-19
2021/05/17 02:29:04;;;;;;;2.17;0.35;;;;;;;;;;5093728;28;20146;-19
2021/05/17 02:31:31;;;;;;;0.35;0.25;;;;;;;;;;5093887;28;20028;-19
2021/05/17 02:33:58;;;;;;;1.10;0.40;;;;;;;;;;5093792;28;20118;-19
2021/05/17 02:36:24;;;;;;;1.08;0.40;;;;;;;;;;5093871;28;20066;-19
2021/05/17 02:38:49;;;;;;;0.43;0.30;;;;;;;;;;5093615;28;20024;-19
2021/05/17 02:41:15;;;;;;;0.20;0.20;;;;;;;;;;5092335;28;20107;-19
2021/05/17 02:43:41;;;;;;;0.68;0.57;;;;;;;;;;5095262;28;20016;-19
2021/05/17 02:46:11;;;;;;;2.33;0.57;;;;;;;;;;5094921;28;20063;-19
2021/05/17 02:48:43;;;;;;;0.38;0.38;;;;;;;;;;5094886;28;20063;-19
2021/05/17 02:51:09;;;;;;;1.00;0.45;;;;;;;;;;5094663;28;20039;-19
2021/05/17 02:53:38;;;;;;;3.90;0.43;;;;;;;;;;5093450;28;20027;-19
2021/05/17 02:56:16;;;;;;;2.45;0.43;;;;;;;;;;5093766;28;20047;-19
2021/05/17 02:59:05;;;;;;;1.15;0.82;;;;;;;;;;5094219;28;20615;-19
2021/05/17 03:01:40;;;;;;;1.45;0.50;;;;;;;;;;5093360;28;20032;-19
2021/05/17 03:04:18;;;;;;;0.40;0.35;;;;;;;;;;5093241;28;20119;-19
2021/05/17 03:07:06;;;;;;;0.25;0.25;;;;;;;;;;5093168;28;20020;-19
2021/05/17 03:09:35;;;;;;;1.40;0.30;;;;;;;;;;5093085;28;20464;-19
2021/05/17 03:12:02;;;;;;;3.33;0.32;;;;;;;;;;5093133;28;20417;-17
2021/05/17 03:14:30;;;;;;;0.13;0.13;;;;;;;;;;5093058;28;20062;-17
2021/05/17 03:17:09;;;;;;;0.52;0.30;;;;;;;;;;5094381;28;20062;-17
2021/05/17 03:19:36;;;;;;;3.28;0.35;;;;;;;;;;5092905;28;20032;-17
2021/05/17 03:22:01;;;;;;;0.30;0.30;;;;;;;;;;5094474;28;20020;-17
2021/05/17 03:24:31;;;;;;;1.02;0.40;;;;;;;;;;5094243;28;20502;-17
2021/05/17 03:26:57;;;;;;;0.75;0.20;;;;;;;;;;5092720;28;20135;-17
2021/05/17 03:29:23;;;;;;;1.45;0.55;;;;;;;;;;5093842;28;20047;-17
2021/05/17 03:31:48;;;;;;;1.13;0.30;;;;;;;;;;5094219;28;20024;-17
2021/05/17 03:34:14;;;;;;;1.92;0.40;;;;;;;;;;5075861;28;20085;-17
2021/05/17 03:36:39;;;;;;;0.98;0.60;;;;;;;;;;5092697;28;20024;-17
2021/05/17 03:39:05;;;;;;;2.35;0.40;;;;;;;;;;5094044;28;20057;-17
2021/05/17 03:41:30;;;;;;;1.60;0.50;;;;;;;;;;5092521;28;20463;-17
2021/05/17 03:43:55;;;;;;;2.40;0.45;;;;;;;;;;5092436;28;20098;-17
2021/05/17 03:46:21;;;;;;;2.53;1.05;;;;;;;;;;5094062;28;20513;-17
2021/05/17 03:48:46;;;;;;;0.40;0.35;;;;;;;;;;5093587;28;20383;-17
2021/05/17 03:51:11;;;;;;;1.60;0.22;;;;;;;;;;5092275;28;20030;-17
2021/05/17 03:53:37;;;;;;;0.20;0.20;;;;;;;;;;5093597;28;20028;-17
2021/05/17 03:56:03;;;;;;;0.40;0.40;;;;;;;;;;5093489;28;20023;-18
2021/05/17 03:58:28;;;;;;;2.15;0.75;;;;;;;;;;5092305;28;20024;-17
2021/05/17 04:00:56;;;;;;;0.95;0.43;;;;;;;;;;5093405;28;20016;-17
2021/05/17 04:03:22;;;;;;;1.27;0.35;;;;;;;;;;5093394;28;20047;-17
2021/05/17 04:06:15;;;;;;;1.45;0.32;;;;;;;;;;5093367;28;20016;-17
2021/05/17 04:13:50;;;;;;;1.70;0.50;;;;;;;;;;5093283;28;20028;-17
2021/05/17 04:16:15;;;;;;;0.35;0.30;;;;;;;;;;5093249;28;20461;-17
2021/05/17 04:18:42;;;;;;;0.20;0.20;;;;;;;;;;5093088;28;20020;-17
2021/05/17 04:21:07;;;;;;;4.40;0.40;;;;;;;;;;5093089;28;20095;-17
2021/05/17 04:23:32;;;;;;;0.40;0.20;;;;;;;;;;5093201;28;20500;-17
2021/05/17 04:25:58;;;;;;;0.47;0.20;;;;;;;;;;5092853;28;20020;-17
2021/05/17 04:28:23;;;;;;;1.17;0.32;;;;;;;;;;5091425;28;20028;-17
2021/05/17 04:30:49;;;;;;;4.75;0.77;;;;;;;;;;5092773;28;20069;-17
2021/05/17 04:33:15;;;;;;;0.28;0.10;;;;;;;;;;5092970;28;20020;-17
2021/05/17 04:35:40;;;;;;;3.17;0.17;;;;;;;;;;5091670;28;20580;-17
2021/05/17 04:38:06;;;;;;;0.08;0.08;;;;;;;;;;5092791;28;20032;-17
2021/05/17 04:40:31;;;;;;;0.35;0.25;;;;;;;;;;5092793;28;20035;-17
2021/05/17 04:42:57;;;;;;;0.60;0.10;;;;;;;;;;5092698;28;20487;-17
2021/05/17 04:45:24;;;;;;;2.30;0.45;;;;;;;;;;5092994;28;20027;-17
2021/05/17 04:47:50;;;;;;;0.15;0.00;;;;;;;;;;5092741;28;20067;-17
2021/05/17 04:50:15;;;;;;;0.10;0.10;;;;;;;;;;5092594;28;20027;-17
2021/05/17 04:52:41;;;;;;;0.05;0.00;;;;;;;;;;5092633;28;20402;-16
2021/05/17 04:55:06;;;;;;;0.20;0.10;;;;;;;;;;5092788;28;20463;-17
2021/05/17 04:57:32;;;;;;;0.03;0.03;;;;;;;;;;5092933;28;20078;-17
2021/05/17 04:59:57;;;;;;;1.08;0.30;;;;;;;;;;5092682;28;20022;-17
2021/05/17 05:02:22;;;;;;;1.90;0.17;;;;;;;;;;5092578;28;20471;-17
2021/05/17 05:04:48;;;;;;;2.88;0.10;;;;;;;;;;5091623;28;20043;-17
2021/05/17 05:07:14;;;;;;;0.25;0.10;;;;;;;;;;5092507;28;20020;-17
2021/05/17 05:09:40;;;;;;;0.82;0.05;;;;;;;;;;5092365;28;20081;-17
2021/05/17 05:12:05;;;;;;;0.40;0.10;;;;;;;;;;5092725;28;20028;-17
2021/05/17 05:14:30;;;;;;;0.00;0.00;;;;;;;;;;5092308;28;20424;-17
2021/05/17 05:16:56;;;;;;;0.17;0.17;;;;;;;;;;5092637;28;20020;-17
2021/05/17 05:19:22;;;;;;;0.50;0.47;;;;;;;;;;5092341;28;20470;-17
2021/05/17 05:21:47;;;;;;;1.00;0.30;;;;;;;;;;5092285;28;20028;-17
2021/05/17 05:24:13;;;;;;;0.35;0.28;;;;;;;;;;5092670;28;20020;-17
2021/05/17 05:26:51;;;;;;;0.10;0.10;;;;;;;;;;5092342;28;20467;-17
2021/05/17 05:29:25;;;;;;;0.10;0.10;;;;;;;;;;5092027;28;20074;-17
2021/05/17 05:31:57;;;;;;;0.10;0.10;;;;;;;;;;5092501;28;20042;-17
2021/05/17 05:34:25;;;;;;;0.00;0.00;;;;;;;;;;5092326;28;20025;-17
2021/05/17 05:36:51;;;;;;;0.10;0.10;;;;;;;;;;5092047;28;20024;-17
2021/05/17 05:39:16;;;;;;;2.08;0.10;;;;;;;;;;5092277;28;20066;-17
2021/05/17 05:41:42;;;;;;;0.43;0.38;;;;;;;;;;5092165;28;20060;-17
2021/05/17 05:44:07;;;;;;;1.35;0.57;;;;;;;;;;5092072;28;20038;-18
2021/05/17 05:46:32;;;;;;;1.30;0.45;;;;;;;;;;5092472;28;20024;-17
2021/05/17 05:48:58;;;;;;;0.20;0.10;;;;;;;;;;5092000;28;20040;-17
2021/05/17 05:51:25;;;;;;;0.00;0.00;;;;;;;;;;5092322;28;20016;-17
2021/05/17 05:53:51;;;;;;;0.10;0.10;;;;;;;;;;5090683;28;20054;-17
2021/05/17 05:56:17;;;;;;;0.15;0.15;;;;;;;;;;5090807;28;20055;-17
2021/05/17 05:58:43;;;;;;;2.38;0.25;;;;;;;;;;5092112;28;20024;-17
2021/05/17 06:01:09;;;;;;;0.13;0.00;;;;;;;;;;5091855;28;20426;-18
2021/05/17 06:03:35;;;;;;;0.80;0.15;;;;;;;;;;5091994;28;20035;-17
2021/05/17 06:06:01;;;;;;;0.00;0.00;;;;;;;;;;5091880;28;20016;-17
2021/05/17 06:08:26;;;;;;;0.50;0.10;;;;;;;;;;5092161;28;20047;-17
2021/05/17 06:10:52;;;;;;;0.10;0.10;;;;;;;;;;5092054;28;20371;-17
2021/05/17 06:13:18;;;;;;;0.10;0.10;;;;;;;;;;5092239;28;20032;-17
2021/05/17 06:15:44;;;;;;;1.02;0.32;;;;;;;;;;5093757;28;20016;-17
2021/05/17 06:18:11;;;;;;;0.17;0.17;;;;;;;;;;5095432;28;20024;-17
2021/05/17 06:20:37;;;;;;;0.10;0.10;;;;;;;;;;5095428;28;20473;-17
2021/05/17 06:23:02;;;;;;;0.50;0.15;;;;;;;;;;5095397;28;20032;-17
2021/05/17 06:25:28;;;;;;;0.70;0.10;;;;;;;;;;5095299;28;20459;-17
2021/05/17 06:27:53;;;;;;;0.03;0.03;;;;;;;;;;5095169;28;20063;-24
2021/05/17 06:30:20;;;;;;;0.00;0.00;;;;;;;;;;5095075;28;20044;-17
2021/05/17 06:32:47;;;;;;;0.03;0.03;;;;;;;;;;5095418;28;20027;-17
2021/05/17 06:35:14;;;;;;;0.17;0.17;;;;;;;;;;5095376;28;20032;-17
2021/05/17 06:37:40;;;;;;;0.47;0.43;;;;;;;;;;5095209;28;20027;-17
2021/05/17 06:40:06;;;;;;;1.27;0.20;;;;;;;;;;5095120;28;20028;-24
2021/05/17 06:42:31;;;;;;;0.13;0.10;;;;;;;;;;5095020;28;20031;-17
2021/05/17 06:44:57;;;;;;;0.75;0.17;;;;;;;;;;5095219;28;20020;-17
2021/05/17 06:47:22;;;;;;;0.10;0.10;;;;;;;;;;5094946;28;20020;-17
2021/05/17 06:49:48;;;;;;;0.63;0.20;;;;;;;;;;5094787;28;20055;-17
2021/05/17 06:52:15;;;;;;;0.50;0.10;;;;;;;;;;5095087;28;20032;-17
2021/05/17 06:54:42;;;;;;;0.00;0.00;;;;;;;;;;5094747;28;20031;-17
2021/05/17 06:59:45;;;;;;;0.05;0.05;;;;;;;;;;5094987;28;20402;-17
2021/05/17 07:02:15;;;;;;;0.20;0.10;;;;;;;;;;5093307;28;20123;-17
2021/05/17 07:04:41;;;;;;;0.73;0.10;;;;;;;;;;5094674;28;20032;-17
2021/05/17 07:07:07;;;;;;;0.00;0.00;;;;;;;;;;5094589;28;20024;-17
2021/05/17 07:12:17;;;;;;;0.60;0.10;;;;;;;;;;5094570;28;20471;-16
2021/05/17 07:14:42;;;;;;;0.10;0.10;;;;;;;;;;5094359;28;20017;-17
2021/05/17 07:17:08;;;;;;;0.30;0.10;;;;;;;;;;5092998;28;20032;-17
2021/05/17 07:19:33;;;;;;;0.17;0.17;;;;;;;;;;5094331;28;20020;-17
2021/05/17 07:24:42;;;;;;;0.10;0.10;;;;;;;;;;5094257;28;20352;-17
2021/05/17 07:27:08;;;;;;;0.20;0.10;;;;;;;;;;5093349;28;20070;-17
2021/05/17 07:29:36;;;;;;;0.20;0.10;;;;;;;;;;5093889;28;20048;-16
2021/05/17 07:32:01;;;;;;;0.35;0.15;;;;;;;;;;5092684;28;20028;-17
2021/05/17 07:34:28;;;;;;;0.03;0.03;;;;;;;;;;5094366;28;20071;-17
2021/05/17 07:36:54;;;;;;;0.00;0.00;;;;;;;;;;5093901;28;20468;-18
2021/05/17 07:39:20;;;;;;;0.38;0.10;;;;;;;;;;5094017;28;20046;-17
2021/05/17 07:41:45;;;;;;;0.10;0.10;;;;;;;;;;5093953;28;20020;-17
2021/05/17 07:44:10;;;;;;;0.10;0.10;;;;;;;;;;5093704;28;20035;-17
2021/05/17 07:46:36;;;;;;;0.65;0.13;;;;;;;;;;5094146;28;20022;-17
2021/05/17 07:49:11;;;;;;;0.08;0.08;;;;;;;;;;5092253;28;20043;-17
2021/05/17 07:51:37;;;;;;;0.00;0.00;;;;;;;;;;5093750;28;20110;-17
2021/05/17 07:54:03;;;;;;;0.17;0.10;;;;;;;;;;5093606;28;20016;-18
2021/05/17 07:56:28;;;;;;;0.32;0.10;;;;;;;;;;5093680;28;20090;-17
2021/05/17 07:58:54;;;;;;;4.75;0.63;;;;;;;;;;5093395;28;20028;-17
2021/05/17 08:01:19;;;;;;;0.08;0.08;;;;;;;;;;5093488;28;20028;-18
2021/05/17 08:03:45;;;;;;;3.72;0.30;;;;;;;;;;5093556;28;20020;-17
2021/05/17 08:06:10;;;;;;;0.10;0.10;;;;;;;;;;5093558;28;20031;-18
2021/05/17 08:08:35;;;;;;;0.43;0.40;;;;;;;;;;5093521;28;20027;-17
2021/05/17 08:11:02;;;;;;;0.10;0.10;;;;;;;;;;5093337;28;20062;-18
2021/05/17 08:13:27;;;;;;;0.17;0.08;;;;;;;;;;5092024;28;20044;-17
2021/05/17 08:15:53;;;;;;;0.25;0.10;;;;;;;;;;5093257;28;20076;-17
2021/05/17 08:18:18;;;;;;;2.10;0.20;;;;;;;;;;5092426;28;20051;-17
2021/05/17 08:20:43;;;;;;;0.35;0.10;;;;;;;;;;5093054;28;20471;-17
2021/05/17 08:23:13;;;;;;;0.20;0.00;;;;;;;;;;4736002;28;10000526;-18
2021/05/17 08:25:39;;;;;;;1.15;0.25;;;;;;;;;;5089199;28;20498;-20
2021/05/17 08:28:05;;;;;;;1.55;0.30;;;;;;;;;;5089264;28;20047;-19
2021/05/17 08:30:40;;;;;;;0.40;0.38;;;;;;;;;;5089343;28;20040;-19
2021/05/17 08:33:06;;;;;;;0.17;0.17;;;;;;;;;;5087983;28;20020;-19
2021/05/17 08:35:31;;;;;;;1.75;0.22;;;;;;;;;;5089303;28;20027;-19
2021/05/17 08:37:56;;;;;;;0.10;0.10;;;;;;;;;;5088136;28;20035;-19
2021/05/17 08:40:25;;;;;;;3.53;0.20;;;;;;;;;;5088798;28;20024;-19
2021/05/17 08:42:50;;;;;;;0.05;0.05;;;;;;;;;;5089042;28;20086;-19
2021/05/17 08:45:16;;;;;;;5.78;0.20;;;;;;;;;;5088856;28;20016;-19
2021/05/17 08:47:41;;;;;;;1.02;0.10;;;;;;;;;;5089363;28;20379;-19
2021/05/17 08:50:07;;;;;;;0.52;0.20;;;;;;;;;;5089206;28;20032;-18
2021/05/17 08:52:32;;;;;;;2.05;0.20;;;;;;;;;;5089438;28;20032;-19
2021/05/17 08:54:58;;;;;;;0.13;0.10;;;;;;;;;;5089045;28;20475;-18
2021/05/17 08:57:23;;;;;;;0.00;0.00;;;;;;;;;;5088423;28;20096;-17
2021/05/17 08:59:50;;;;;;;0.35;0.20;;;;;;;;;;5087114;28;20020;-18
2021/05/17 09:02:15;;;;;;;0.38;0.10;;;;;;;;;;5089423;28;20024;-17
2021/05/17 09:05:00;;;;;;;0.10;0.10;;;;;;;;;;5088835;28;20115;-17
2021/05/17 09:07:34;;;;;;;0.10;0.10;;;;;;;;;;5088612;28;20040;-17
2021/05/17 09:09:59;;;;;;;;;;;;;;;;;;5088781;28;20036;-17
2021/05/17 09:12:24;;;;;;;0.17;0.17;;;;;;;;;;5088449;28;20279;-17
2021/05/17 09:14:55;;;;;;;0.20;0.10;;;;;;;;;;5088459;28;20038;-17
2021/05/17 09:17:20;;;;;;;0.85;0.10;;;;;;;;;;5087751;28;20044;-17
2021/05/17 09:19:46;;;;;;;0.05;0.03;;;;;;;;;;5088225;28;20142;-17
2021/05/17 09:22:13;;;;;;;0.30;0.30;;;;;;;;;;5088188;28;20495;-17
2021/05/17 09:24:40;;;;;;;0.10;0.10;;;;;;;;;;5088412;28;20451;-17
2021/05/17 09:27:06;;;;;;;0.10;0.10;;;;;;;;;;5087120;28;20036;-18
2021/05/17 09:29:45;;;;;;;0.10;0.10;;;;;;;;;;5087896;28;20067;-17
2021/05/17 09:32:11;;;;;;;1.80;0.20;;;;;;;;;;5087267;28;20028;-17
2021/05/17 09:34:36;;;;;;;0.25;0.10;;;;;;;;;;5088485;28;20023;-17
2021/05/17 09:37:05;;;;;;;0.10;0.10;;;;;;;;;;5088431;28;20077;-17
2021/05/17 09:39:31;;;;;;;0.10;0.10;;;;;;;;;;5088636;28;20016;-17
2021/05/17 09:41:57;;;;;;;0.00;0.00;;;;;;;;;;5088478;28;20483;-17
2021/05/17 09:44:22;;;;;;;0.30;0.20;;;;;;;;;;5088825;28;20501;-17
2021/05/17 09:46:53;;;;;;;0.10;0.10;;;;;;;;;;5088637;28;20036;-17
2021/05/17 09:49:26;;;;;;;0.25;0.10;;;;;;;;;;5088753;28;20608;-17
2021/05/17 09:52:02;;;;;;;0.05;0.05;;;;;;;;;;5092167;28;20055;-21
2021/05/17 09:54:28;;;;;;;0.10;0.10;;;;;;;;;;5092394;28;20097;-17
2021/05/17 09:57:05;;;;;;;0.25;0.20;;;;;;;;;;5092475;28;20481;-17
2021/05/17 09:59:36;;;;;;;0.13;0.10;;;;;;;;;;5100629;28;20109;-17
2021/05/17 10:02:03;;;;;;;0.20;0.10;;;;;;;;;;5092451;28;20040;-17
2021/05/17 10:04:29;;;;;;;0.20;0.20;;;;;;;;;;5092255;28;20122;-17
2021/05/17 10:06:54;;;;;;;0.22;0.05;;;;;;;;;;5092288;28;20534;-17
2021/05/17 10:09:20;;;;;;;0.13;0.13;;;;;;;;;;5091198;28;20122;-17
2021/05/17 10:11:45;;;;;;;0.05;0.00;;;;;;;;;;5091880;28;20031;-17
2021/05/17 10:14:10;;;;;;;0.00;0.00;;;;;;;;;;5091523;28;20370;-17
2021/05/17 10:16:39;;;;;;;0.20;0.03;;;;;;;;;;5106997;28;20077;-17
2021/05/17 10:19:05;;;;;;;1.45;0.20;;;;;;;;;;5091886;28;20016;-18
2021/05/17 10:21:30;;;;;;;0.20;0.20;;;;;;;;;;5091573;28;20055;-18
2021/05/17 10:23:56;;;;;;;0.80;0.10;;;;;;;;;;5091987;28;20078;-18
2021/05/17 10:26:25;;;;;;;0.10;0.10;;;;;;;;;;5092327;28;20489;-18
2021/05/17 10:28:55;;;;;;;0.10;0.10;;;;;;;;;;5091629;28;20402;-18
2021/05/17 10:31:21;;;;;;;0.10;0.10;;;;;;;;;;5092090;28;20040;-18
2021/05/17 10:33:57;;;;;;;0.30;0.10;;;;;;;;;;5091753;28;20024;-18
2021/05/17 10:36:41;;;;;;;0.00;0.00;;;;;;;;;;5091807;28;20471;-18
2021/05/17 10:39:11;;;;;;;0.00;0.00;;;;;;;;;;5091774;28;20142;-18
2021/05/17 10:41:54;;;;;;;0.45;0.20;;;;;;;;;;5091810;28;20101;-18
2021/05/17 10:46:50;;;;;;;0.10;0.10;;;;;;;;;;5091323;28;20028;-17
2021/05/17 10:49:25;;;;;;;0.43;0.15;;;;;;;;;;5091259;28;20040;-17
2021/05/17 10:51:52;;;;;;;0.10;0.10;;;;;;;;;;5091297;28;20043;-17
2021/05/17 10:54:24;;;;;;;0.30;0.10;;;;;;;;;;5091504;28;20024;-17
2021/05/17 10:56:56;;;;;;;0.10;0.10;;;;;;;;;;5091387;28;20043;-17
2021/05/17 11:02:22;;;;;;;0.10;0.10;;;;;;;;;;5089983;28;20028;-17
2021/05/17 11:04:47;;;;;;;0.20;0.10;;;;;;;;;;5091129;28;20491;-18
2021/05/17 11:07:14;;;;;;;0.10;0.10;;;;;;;;;;5091714;28;20058;-17
2021/05/17 11:09:49;;;;;;;0.73;0.20;;;;;;;;;;5090994;28;20562;-17
2021/05/17 11:12:37;;;;;;;0.00;0.00;;;;;;;;;;5091193;28;20024;-17
2021/05/17 11:15:08;;;;;;;0.43;0.20;;;;;;;;;;5080370;28;20565;-19
2021/05/17 11:17:52;;;;;;;0.30;0.30;;;;;;;;;;5091153;28;20482;-17
2021/05/17 11:20:45;;;;;;;0.13;0.10;;;;;;;;;;5089657;28;20024;-18
2021/05/17 11:23:23;;;;;;;0.15;0.15;;;;;;;;;;5089250;28;20036;-17
2021/05/17 11:26:01;;;;;;;4.22;0.10;;;;;;;;;;5090571;28;20059;-17
2021/05/17 11:28:39;;;;;;;0.05;0.05;;;;;;;;;;5090799;28;20137;-17
2021/05/17 11:31:18;;;;;;;0.10;0.10;;;;;;;;;;5089559;28;20110;-17
2021/05/17 11:33:57;;;;;;;0.22;0.22;;;;;;;;;;5090735;28;20028;-17
2021/05/17 11:36:30;;;;;;;0.03;0.00;;;;;;;;;;5090995;28;20062;-18
2021/05/17 11:39:04;;;;;;;1.25;0.25;;;;;;;;;;5090336;28;20741;-17
2021/05/17 11:41:31;;;;;;;0.10;0.10;;;;;;;;;;5106172;28;20028;-17
2021/05/17 11:44:00;;;;;;;0.10;0.10;;;;;;;;;;5090695;28;20081;-17
2021/05/17 11:46:26;;;;;;;0.80;0.10;;;;;;;;;;5105388;28;20067;-18
2021/05/17 11:48:51;;;;;;;0.22;0.20;;;;;;;;;;5090395;28;20051;-17
2021/05/17 11:51:22;;;;;;;0.05;0.05;;;;;;;;;;5090560;28;20072;-17
2021/05/17 11:53:47;;;;;;;0.08;0.08;;;;;;;;;;5090216;28;20031;-18
2021/05/17 11:56:13;;;;;;;0.45;0.10;;;;;;;;;;5089709;28;20078;-18
2021/05/17 11:58:38;;;;;;;0.10;0.10;;;;;;;;;;5089858;28;20070;-18
2021/05/17 12:01:24;;;;;;;0.35;0.20;;;;;;;;;;5089912;28;20653;-18
2021/05/17 12:03:49;;;;;;;0.00;0.00;;;;;;;;;;5089754;28;20178;-18
2021/05/17 12:06:15;;;;;;;0.00;0.00;;;;;;;;;;5105109;28;20474;-18
2021/05/17 12:08:40;;;;;;;0.20;0.10;;;;;;;;;;5089371;28;20512;-18
2021/05/17 12:11:12;;;;;;;0.13;0.10;;;;;;;;;;5089168;28;20016;-18
2021/05/17 12:13:45;;;;;;;0.10;0.10;;;;;;;;;;5089242;28;20051;-18
2021/05/17 12:16:26;;;;;;;0.10;0.10;;;;;;;;;;5092686;28;20027;-18
2021/05/17 12:19:01;;;;;;;0.10;0.10;;;;;;;;;;5093381;28;20038;-18
2021/05/17 12:21:44;;;;;;;0.17;0.10;;;;;;;;;;5093222;28;20466;-18
2021/05/17 12:24:23;;;;;;;0.00;0.00;;;;;;;;;;5093137;28;20032;-18
2021/05/17 12:26:57;;;;;;;0.10;0.10;;;;;;;;;;5093165;28;20035;-18
2021/05/17 12:29:22;;;;;;;0.10;0.10;;;;;;;;;;5091199;28;20094;-18
2021/05/17 12:31:48;;;;;;;0.17;0.17;;;;;;;;;;5093122;28;20482;-18
2021/05/17 12:34:14;;;;;;;0.60;0.20;;;;;;;;;;5093001;28;20028;-18
2021/05/17 12:36:42;;;;;;;1.80;0.10;;;;;;;;;;5093262;28;20024;-18
2021/05/17 12:39:13;;;;;;;0.00;0.00;;;;;;;;;;5092828;28;20024;-18
2021/05/17 12:41:39;;;;;;;0.15;0.00;;;;;;;;;;5092879;28;20020;-18
2021/05/17 12:44:25;;;;;;;0.00;0.00;;;;;;;;;;5092758;28;20115;-18
2021/05/17 12:47:07;;;;;;;0.08;0.03;;;;;;;;;;5092757;28;20387;-18
2021/05/17 12:49:44;;;;;;;1.77;0.10;;;;;;;;;;5092915;28;20473;-18
2021/05/17 12:52:10;;;;;;;0.10;0.10;;;;;;;;;;5108268;28;20032;-18
2021/05/17 12:54:35;;;;;;;0.10;0.10;;;;;;;;;;5092760;28;20466;-18
2021/05/17 12:57:05;;;;;;;0.65;0.10;;;;;;;;;;5092551;28;20024;-18
2021/05/17 12:59:30;;;;;;;0.10;0.00;;;;;;;;;;5092564;28;20486;-18
2021/05/17 13:02:08;;;;;;;1.13;0.25;;;;;;;;;;5092833;28;20024;-18
2021/05/17 13:04:34;;;;;;;0.30;0.03;;;;;;;;;;5092728;28;20038;-18
2021/05/17 13:07:04;;;;;;;1.65;0.00;;;;;;;;;;5092803;28;20027;-18
2021/05/17 13:09:32;;;;;;;0.10;0.10;;;;;;;;;;5092402;28;20123;-18
2021/05/17 13:11:58;;;;;;;0.10;0.10;;;;;;;;;;5092438;28;20589;-18
2021/05/17 13:14:23;;;;;;;0.13;0.10;;;;;;;;;;5092819;28;20048;-18
2021/05/17 13:16:49;;;;;;;0.10;0.10;;;;;;;;;;5092424;28;20028;-18
2021/05/17 13:29:58;;;;;;;0.00;0.00;;;;;;;;;;5108329;28;20038;-18
2021/05/17 13:31:04;;;;;;;0.35;0.10;;;;;;;;;;5096683;28;20028;-18
2021/05/17 13:33:46;;;;;;;0.00;0.00;;;;;;;;;;5096711;28;20035;-18
2021/05/17 13:36:15;;;;;;;0.43;0.30;;;;;;;;;;5096621;28;20024;-18
2021/05/17 13:38:42;;;;;;;0.17;0.10;;;;;;;;;;4742079;27;10000469;-18
2021/05/17 13:41:08;;;;;;;0.50;0.20;;;;;;;;;;5092361;28;20040;-18
2021/05/17 13:43:35;;;;;;;0.20;0.10;;;;;;;;;;5092688;28;20012;-18
2021/05/17 13:46:01;;;;;;;0.45;0.10;;;;;;;;;;5092286;28;20139;-18
2021/05/17 13:48:28;;;;;;;0.20;0.10;;;;;;;;;;5091416;28;20012;-19
2021/05/17 13:50:54;;;;;;;1.25;0.50;;;;;;;;;;5092495;28;20142;-19
2021/05/17 13:53:20;;;;;;;0.55;0.10;;;;;;;;;;5108692;28;20099;-19
2021/05/17 13:55:46;;;;;;;0.57;0.10;;;;;;;;;;5093004;28;20036;-19
2021/05/17 13:58:11;;;;;;;0.47;0.20;;;;;;;;;;5092223;28;20023;-19
2021/05/17 14:00:37;;;;;;;3.38;0.20;;;;;;;;;;5092951;28;20024;-19
2021/05/17 14:03:02;;;;;;;1.15;0.10;;;;;;;;;;5091936;28;20378;-19
2021/05/17 14:05:28;;;;;;;1.40;0.10;;;;;;;;;;5092548;28;20471;-19
2021/05/17 14:07:53;;;;;;;1.98;0.10;;;;;;;;;;5092219;28;20012;-17
2021/05/17 14:10:19;;;;;;;0.45;0.20;;;;;;;;;;5090954;28;20529;-18
2021/05/17 14:12:45;;;;;;;0.20;0.10;;;;;;;;;;5092128;28;20102;-18
2021/05/17 14:15:11;;;;;;;0.10;0.10;;;;;;;;;;5092096;28;20672;-18
2021/05/17 14:17:37;;;;;;;0.03;0.03;;;;;;;;;;5092474;28;20059;-18
2021/05/17 14:20:04;;;;;;;0.30;0.10;;;;;;;;;;5091729;28;20039;-18
2021/05/17 14:22:29;;;;;;;2.05;0.47;;;;;;;;;;5090635;28;20699;-18
2021/05/17 14:24:55;;;;;;;0.60;0.13;;;;;;;;;;5090674;28;20153;-18
2021/05/17 14:27:21;;;;;;;0.10;0.10;;;;;;;;;;5107333;28;20046;-18
2021/05/17 14:29:46;;;;;;;0.10;0.10;;;;;;;;;;5091449;28;20170;-18
2021/05/17 14:32:12;;;;;;;2.40;0.20;;;;;;;;;;5091695;28;20742;-18
2021/05/17 14:34:38;;;;;;;0.82;0.20;;;;;;;;;;5091841;28;20422;-18
2021/05/17 14:37:06;;;;;;;0.13;0.10;;;;;;;;;;5091941;28;20459;-18
2021/05/17 14:39:31;;;;;;;1.10;0.25;;;;;;;;;;5091680;28;20066;-18
2021/05/17 14:41:57;;;;;;;2.78;0.20;;;;;;;;;;5092061;28;20055;-20
2021/05/17 14:44:22;;;;;;;0.55;0.10;;;;;;;;;;5089814;28;20505;-18
2021/05/17 14:46:48;;;;;;;0.30;0.20;;;;;;;;;;5089710;28;20027;-18
2021/05/17 14:49:13;;;;;;;0.85;0.30;;;;;;;;;;5090960;28;20863;-18
2021/05/17 14:51:39;;;;;;;1.58;0.17;;;;;;;;;;5090947;28;20015;-18
2021/05/17 14:54:07;;;;;;;0.47;0.25;;;;;;;;;;5090876;28;20471;-18
2021/05/17 14:56:32;;;;;;;0.10;0.10;;;;;;;;;;5091251;28;20022;-18
2021/05/17 14:58:59;;;;;;;0.15;0.10;;;;;;;;;;5090080;28;20119;-18
2021/05/17 15:01:24;;;;;;;0.73;0.65;;;;;;;;;;5091332;28;20022;-18
2021/05/17 15:03:50;;;;;;;1.98;0.15;;;;;;;;;;5090759;28;20043;-18
2021/05/17 15:06:15;;;;;;;0.55;0.15;;;;;;;;;;5090985;28;20020;-18
2021/05/17 15:08:40;;;;;;;0.10;0.10;;;;;;;;;;5090597;28;20040;-18
2021/05/17 15:11:06;;;;;;;2.95;0.17;;;;;;;;;;5091163;28;20032;-18
2021/05/17 15:13:31;;;;;;;0.75;0.20;;;;;;;;;;5090867;28;20810;-18
2021/05/17 15:15:57;;;;;;;0.20;0.17;;;;;;;;;;5105288;28;20425;-18